Mountain View Mountain View Mountain View Mountain View


Uccle  Uccle


Leuven  Leuven


Thunder radar more information blitzortung!


Rain radar more information rain snow radar


Visitez nos sites météorologiques autres:

Template documentation
and downloads

And another site



Rapports METAR proximité

   
EBAW - Antwerp
Mise à jour: 22-10-2017 15:20
Partiellement nuageux  
Partiellement nuageux  
   Vent: OSO 22.2 km/h
Vent: OSO 22.2 km/h
Température: 12°C
Point de rosée: 8°C
Humidité: 77%
Baromètre: 1012 hPa
Nuageux: Partiellement nuageux
visibilité: More than 10 km
Détails des nuages: Partiellement nuageux 2100 ft
EBAW 221320Z 25012KT 9999 SCT021 12/08 Q1012 TEMPO 25015G25KT 4000 SHRA
EBLG - Liège
Mise à jour: 22-10-2017 15:20
Light Showers, Pluie, Partiellement nuageux  
Light Showers, Pluie, Partiellement nuageux  
   Vent: OSO 33.3 km/h
Vent: OSO 33.3 km/h
Température: 11°C
Point de rosée: 7°C
Humidité: 77%
Baromètre: 1013 hPa
Nuageux: Partiellement nuageux
visibilité: More than 10 km
Détails des nuages: Partiellement nuageux 1700 ft
EBLG 221320Z 25018KT 9999 -SHRA SCT017 11/07 Q1013 NOSIG
EBCV - Mons/Bergen
Mise à jour: 22-10-2017 15:25
Nuageux  
Nuageux  
   Vent: Ouest 18.5 km/h
Vent: Ouest 18.5 km/h
Température: 12°C
Point de rosée: 6°C
Humidité: 67%
Baromètre: 1014 hPa
Nuageux: Nuageux
visibilité: More than 10 km
Détails des nuages: Peu de nuages 8200 ft,
Nuageux 10000 ft
EBCV 221325Z AUTO 27010KT 9999 FEW082/// BKN100/// 12/06 Q1014 BLU
EHBK - Maastricht
Mise à jour: 22-10-2017 15:25
Nuageux  
Nuageux  
   Vent: SO 29.6 km/h<br />Gust to 29.6 km/h
Vent: SO 29.6 km/h
Gust to 29.6 km/h
Température: 13°C
Point de rosée: 7°C
Humidité: 67%
Baromètre: 1012 hPa
Nuageux: Nuageux
visibilité: More than 10 km
Détails des nuages: Partiellement nuageux 2200 ft,
Nuageux 2600 ft,
Nuageux 3700 ft
EHBK 221325Z AUTO 23016G26KT 200V270 9999 SCT022 BKN026 BKN037 13/07 Q1012 NOSIG
ELLX - Luxemburg
Mise à jour: 22-10-2017 15:20
Nuageux  
Nuageux  
   Vent: OSO 24.1 km/h
Vent: OSO 24.1 km/h
Température: 9°C
éolien: 6°C
Point de rosée: 7°C
Humidité: 87%
Baromètre: 1015 hPa
Nuageux: Nuageux
visibilité: More than 10 km
Détails des nuages: Partiellement nuageux 1100 ft,
Nuageux 1400 ft
ELLX 221320Z 24013KT 9999 SCT011 BKN014 09/07 Q1015 NOSIG
EBOS - Oostende
Mise à jour: 22-10-2017 15:20
Nuageux  
Nuageux  
   Vent: Ouest 38.9 km/h
Vent: Ouest 38.9 km/h
Température: 11°C
Point de rosée: 6°C
Humidité: 72%
Baromètre: 1013 hPa
Nuageux: Nuageux
visibilité: More than 10 km
Détails des nuages: Partiellement nuageux 2800 ft,
Nuageux 4400 ft
EBOS 221320Z 26021KT 9999 SCT028 BKN044 11/06 Q1013 NOSIG

Script développé par  Saratoga-weather.org Adapté pour le modèle par  Weerstation Leuven

Vous trouverez notre info météo Également à:

WeatherCloud

Weather Underground

AWEKAS

Citizen Weather Observer Program (CWOP)

Équipement que nous utilisons:

Station de Météo
Davis VP2

Programme Météo
Meteobridge

Provider
Webcreating

Davis VP2

Meteobridge

Webcreating

Mountain View Mountain View Mountain View Mountain View